Tetide — IVTN — position and weather

sailwx.info

Track history (hours):
 
Tides and Currents Weather Stations Pressure Air Temp Water Temp Dewpoint Dewpoint Depression Visibility Wind Speed Wind Dir Waves Ship Positions

Tetide

Last reported at 2016-May-30 12:31 UTC. Time now 2016-May-30 12:38 UTC.
Position N 41°15' E 013°37'.

Length 70 m; draft 3.6 m.

Type: Passenger vessel. MMSI: 247043100.

Date/timePositionNaut miles runAvg speedWind from/ knotsBaromVisibWave heightAir tempDewpointWater temp
2016-May-30 12:31N 41°15' E 013°37'2 0.3
2016-May-30 06:15N 41°13' E 013°36'2 3.1
2016-May-30 05:34N 41°15' E 013°37'0 0.0
2016-May-30 02:30N 41°15' E 013°37'0 0.0
2016-May-29 20:12N 41°15' E 013°37'0 0.0
2016-May-29 19:33N 41°15' E 013°37'0 0.0
2016-May-29 17:33N 41°15' E 013°37'1813.6
2016-May-29 16:11N 40°58' E 013°30'915.1
2016-May-29 15:33N 40°49' E 013°26'1 0.5
2016-May-29 14:25N 40°48' E 013°26'1213.0
2016-May-29 13:30N 40°59' E 013°31'1514.7
2016-May-29 12:30N 41°13' E 013°37'1 1.6
2016-May-29 11:33N 41°12' E 013°35'1515.2
2016-May-29 10:33N 41°04' E 013°18'1615.2
2016-May-29 09:30N 40°55' E 013°01'2 2.0
2016-May-29 08:31N 40°54' E 012°59'1415.0
2016-May-29 07:33N 41°02' E 013°14'1514.9
2016-May-29 06:32N 41°10' E 013°32'6 6.5
2016-May-29 05:33N 41°15' E 013°37'0 0.0
2016-May-29 04:33N 41°15' E 013°37'0 0.0
2016-May-29 03:33N 41°15' E 013°37'0 0.0
2016-May-29 02:34N 41°15' E 013°37'0 0.0
2016-May-29 01:34N 41°15' E 013°37'0 0.0
2016-May-29 00:34N 41°15' E 013°37'0 0.0
2016-May-28 23:33N 41°15' E 013°37'0 0.0
2016-May-28 22:33N 41°15' E 013°37'0 0.0
2016-May-28 21:33N 41°15' E 013°37'0 0.0
2016-May-28 20:33N 41°15' E 013°37'0 0.0
2016-May-28 19:33N 41°15' E 013°37'0 0.0
2016-May-28 18:34N 41°15' E 013°37'1312.8
2016-May-28 17:33N 41°07' E 013°24'1515.2
2016-May-28 16:33N 40°59' E 013°07'8 8.4
2016-May-28 15:33N 40°54' E 012°58'1514.8
2016-May-28 14:34N 41°02' E 013°14'1514.9
2016-May-28 13:32N 41°10' E 013°31'7 6.8
2016-May-28 12:34N 41°15' E 013°37'2 1.6
2016-May-28 11:33N 41°14' E 013°37'1515.2
2016-May-28 10:34N 40°59' E 013°31'1211.7
2016-May-28 09:33N 40°48' E 013°26'6 6.2
2016-May-28 08:33N 40°54' E 013°28'1515.0
2016-May-28 07:33N 41°08' E 013°34'7 7.0
2016-May-28 06:29N 41°15' E 013°37'5 5.9
2016-May-28 05:33N 41°11' E 013°33'31 2.8
2016-May-27 18:33N 40°54' E 012°58'1514.6
2016-May-27 17:33N 41°02' E 013°14'1514.6
2016-May-27 16:33N 41°10' E 013°31'7 7.0
2016-May-27 15:33N 41°15' E 013°37'6 6.1
2016-May-27 14:34N 41°10' E 013°32'1515.0
2016-May-27 13:33N 41°02' E 013°15'1515.2
2016-May-27 12:33N 40°54' E 012°58'1 0.5
2016-May-27 11:31N 40°54' E 012°58'0 0.2
2016-May-27 10:32N 40°54' E 012°58'1414.3
2016-May-27 09:33N 41°01' E 013°13'1514.3
2016-May-27 08:32N 41°09' E 013°29'8 8.3
2016-May-27 07:33N 41°15' E 013°37'0 0.0
2016-May-27 06:30N 41°15' E 013°37'6 6.7
2016-May-27 05:34N 41°10' E 013°32'1515.2
2016-May-27 04:34N 41°02' E 013°15'1515.0
2016-May-27 03:33N 40°54' E 012°58'0 0.4
2016-May-27 02:33N 40°54' E 012°58'0 0.0
2016-May-27 01:33N 40°54' E 012°58'0 0.0
2016-May-27 00:33N 40°54' E 012°58'0 0.0
2016-May-26 23:33N 40°54' E 012°58'0 0.0
2016-May-26 22:33N 40°54' E 012°58'0 0.0
2016-May-26 21:33N 40°54' E 012°58'0 0.0
2016-May-26 20:33N 40°54' E 012°58'0 0.0
2016-May-26 19:33N 40°54' E 012°58'0 0.0
2016-May-26 18:32N 40°54' E 012°58'9 9.6
2016-May-26 17:33N 40°59' E 013°08'1514.5
2016-May-26 16:33N 41°07' E 013°24'1312.6
2016-May-26 15:33N 41°15' E 013°37'5 5.1
2016-May-26 14:34N 41°10' E 013°36'1515.3
2016-May-26 13:34N 40°56' E 013°29'8 8.3
2016-May-26 12:34N 40°48' E 013°26'0 0.0
2016-May-26 11:33N 40°48' E 013°26'0 0.0
2016-May-26 10:34N 40°48' E 013°26'0 0.1
2016-May-26 09:33N 40°48' E 013°26'1414.4
2016-May-26 08:34N 41°02' E 013°31'1414.0
2016-May-26 07:33N 41°15' E 013°37'0 0.1
2016-May-26 06:33N 41°15' E 013°37'8 7.7
2016-May-26 05:28N 41°09' E 013°30'1314.7
2016-May-26 04:34N 41°01' E 013°15'9 0.9
2016-May-25 18:31N 40°57' E 013°05'3014.2
2016-May-25 16:23N 41°15' E 013°37'0 0.4
2016-May-25 15:18N 41°15' E 013°37'1412.3
2016-May-25 14:09N 41°06' E 013°23'1115.0
2016-May-25 13:26N 40°60' E 013°11'23 4.4
2016-May-25 08:18N 41°13' E 013°36'3 1.5
2016-May-25 06:25N 41°15' E 013°37'36 3.2
2016-May-24 19:08N 40°54' E 012°58'813.4
2016-May-24 18:33N 40°57' E 013°07'2713.0
2016-May-24 16:30N 41°13' E 013°36'3 3.0
2016-May-24 15:33N 41°15' E 013°37'12 9.8
2016-May-24 14:20N 41°08' E 013°24'10 0.5
2016-May-23 17:20N 40°60' E 013°16'2212.2
2016-May-23 15:32N 41°15' E 013°37'6 6.2
2016-May-23 14:33N 41°09' E 013°35'1514.7
2016-May-23 13:34N 40°55' E 013°29'8 7.7
2016-May-23 12:32N 40°48' E 013°26'0 0.0
2016-May-23 11:33N 40°48' E 013°26'0 0.0
2016-May-23 10:33N 40°48' E 013°26'0 0.0
2016-May-23 09:33N 40°48' E 013°26'1313.1
2016-May-23 08:33N 41°01' E 013°31'1514.8
2016-May-23 07:33N 41°15' E 013°37'6 2.9
2016-May-23 05:33N 41°10' E 013°32'1515.3
2016-May-23 04:33N 41°02' E 013°14'1515.2
2016-May-23 03:33N 40°54' E 012°58'0 0.2
2016-May-23 02:33N 40°54' E 012°58'0 0.0
2016-May-23 01:33N 40°54' E 012°58'0 0.0
2016-May-23 00:33N 40°54' E 012°58'0 0.0
2016-May-22 23:33N 40°54' E 012°58'0 0.0
2016-May-22 22:33N 40°54' E 012°58'0 0.0
2016-May-22 21:33N 40°54' E 012°58'0 0.0
2016-May-22 20:33N 40°54' E 012°58'0 0.0
2016-May-22 19:33N 40°54' E 012°58'0 0.0
2016-May-22 18:33N 40°54' E 012°58'7 7.4
2016-May-22 17:33N 40°58' E 013°06'1515.0
2016-May-22 16:32N 41°06' E 013°23'1414.2
2016-May-22 15:33N 41°15' E 013°37'6 5.8
2016-May-22 14:34N 41°10' E 013°35'1515.0
2016-May-22 13:33N 40°55' E 013°29'8 7.8
2016-May-22 12:34N 40°48' E 013°26'0 0.0
2016-May-22 11:34N 40°48' E 013°26'0 0.0
2016-May-22 10:34N 40°48' E 013°26'0 0.0
2016-May-22 09:34N 40°48' E 013°26'19 4.7
2016-May-22 05:33N 41°07' E 013°23'1615.2
2016-May-22 04:30N 40°58' E 013°06'7 7.5
2016-May-22 03:32N 40°54' E 012°58'0 0.0
2016-May-22 02:33N 40°54' E 012°58'0 0.0
2016-May-22 01:33N 40°54' E 012°58'0 0.0
2016-May-22 00:33N 40°54' E 012°58'0 0.0
2016-May-21 23:33N 40°54' E 012°58'0 0.0
2016-May-21 22:33N 40°54' E 012°58'0 0.0
2016-May-21 21:33N 40°54' E 012°58'0 0.0
2016-May-21 20:33N 40°54' E 012°58'0 0.0
2016-May-21 19:33N 40°54' E 012°58'0 0.0
2016-May-21 18:33N 40°54' E 012°58'9 8.7
2016-May-21 17:33N 40°58' E 013°08'1514.5
2016-May-21 16:33N 41°06' E 013°24'1313.3
2016-May-21 15:33N 41°15' E 013°37'5 5.3
2016-May-21 14:34N 41°10' E 013°35'1515.2
2016-May-21 13:33N 40°56' E 013°29'8 8.1
2016-May-21 12:33N 40°48' E 013°26'0 0.0
2016-May-21 11:34N 40°48' E 013°26'0 0.0
2016-May-21 10:34N 40°48' E 013°26'0 0.0
2016-May-21 09:34N 40°48' E 013°26'1413.5
2016-May-21 08:33N 41°01' E 013°31'1413.9
2016-May-21 07:33N 41°14' E 013°37'1 1.0
2016-May-21 06:24N 41°15' E 013°37'7 7.9
2016-May-21 05:33N 41°10' E 013°32'1514.7
2016-May-21 04:33N 41°02' E 013°15'1514.8
2016-May-21 03:33N 40°54' E 012°58'28 2.5
2016-May-20 16:11N 41°10' E 013°30'812.3
2016-May-20 15:33N 41°15' E 013°37'  
Track history (hours):
 
Tides and Currents Weather Stations Pressure Air Temp Water Temp Dewpoint Dewpoint Depression Visibility Wind Speed Wind Dir Waves Ship Positions

Tetide

Last reported at 2016-May-30 12:31 UTC. Time now 2016-May-30 12:38 UTC.
Position N 41°15' E 013°37'.

Length 70 m; draft 3.6 m.

Type: Passenger vessel. MMSI: 247043100.

Date/timePositionNaut miles runAvg speedWind from/ knotsBaromVisibWave heightAir tempDewpointWater temp
2016-May-30 12:31N 41°15' E 013°37'2 0.3
2016-May-30 06:15N 41°13' E 013°36'2 3.1
2016-May-30 05:34N 41°15' E 013°37'0 0.0
2016-May-30 02:30N 41°15' E 013°37'0 0.0
2016-May-29 20:12N 41°15' E 013°37'0 0.0
2016-May-29 19:33N 41°15' E 013°37'0 0.0
2016-May-29 17:33N 41°15' E 013°37'1813.6
2016-May-29 16:11N 40°58' E 013°30'915.1
2016-May-29 15:33N 40°49' E 013°26'1 0.5
2016-May-29 14:25N 40°48' E 013°26'1213.0
2016-May-29 13:30N 40°59' E 013°31'1514.7
2016-May-29 12:30N 41°13' E 013°37'1 1.6
2016-May-29 11:33N 41°12' E 013°35'1515.2
2016-May-29 10:33N 41°04' E 013°18'1615.2
2016-May-29 09:30N 40°55' E 013°01'2 2.0
2016-May-29 08:31N 40°54' E 012°59'1415.0
2016-May-29 07:33N 41°02' E 013°14'1514.9
2016-May-29 06:32N 41°10' E 013°32'6 6.5
2016-May-29 05:33N 41°15' E 013°37'0 0.0
2016-May-29 04:33N 41°15' E 013°37'0 0.0
2016-May-29 03:33N 41°15' E 013°37'0 0.0
2016-May-29 02:34N 41°15' E 013°37'0 0.0
2016-May-29 01:34N 41°15' E 013°37'0 0.0
2016-May-29 00:34N 41°15' E 013°37'0 0.0
2016-May-28 23:33N 41°15' E 013°37'0 0.0
2016-May-28 22:33N 41°15' E 013°37'0 0.0
2016-May-28 21:33N 41°15' E 013°37'0 0.0
2016-May-28 20:33N 41°15' E 013°37'0 0.0
2016-May-28 19:33N 41°15' E 013°37'0 0.0
2016-May-28 18:34N 41°15' E 013°37'1312.8
2016-May-28 17:33N 41°07' E 013°24'1515.2
2016-May-28 16:33N 40°59' E 013°07'8 8.4
2016-May-28 15:33N 40°54' E 012°58'1514.8
2016-May-28 14:34N 41°02' E 013°14'1514.9
2016-May-28 13:32N 41°10' E 013°31'7 6.8
2016-May-28 12:34N 41°15' E 013°37'2 1.6
2016-May-28 11:33N 41°14' E 013°37'1515.2
2016-May-28 10:34N 40°59' E 013°31'1211.7
2016-May-28 09:33N 40°48' E 013°26'6 6.2
2016-May-28 08:33N 40°54' E 013°28'1515.0
2016-May-28 07:33N 41°08' E 013°34'7 7.0
2016-May-28 06:29N 41°15' E 013°37'5 5.9
2016-May-28 05:33N 41°11' E 013°33'31 2.8
2016-May-27 18:33N 40°54' E 012°58'1514.6
2016-May-27 17:33N 41°02' E 013°14'1514.6
2016-May-27 16:33N 41°10' E 013°31'7 7.0
2016-May-27 15:33N 41°15' E 013°37'6 6.1
2016-May-27 14:34N 41°10' E 013°32'1515.0
2016-May-27 13:33N 41°02' E 013°15'1515.2
2016-May-27 12:33N 40°54' E 012°58'1 0.5
2016-May-27 11:31N 40°54' E 012°58'0 0.2
2016-May-27 10:32N 40°54' E 012°58'1414.3
2016-May-27 09:33N 41°01' E 013°13'1514.3
2016-May-27 08:32N 41°09' E 013°29'8 8.3
2016-May-27 07:33N 41°15' E 013°37'0 0.0
2016-May-27 06:30N 41°15' E 013°37'6 6.7
2016-May-27 05:34N 41°10' E 013°32'1515.2
2016-May-27 04:34N 41°02' E 013°15'1515.0
2016-May-27 03:33N 40°54' E 012°58'0 0.4
2016-May-27 02:33N 40°54' E 012°58'0 0.0
2016-May-27 01:33N 40°54' E 012°58'0 0.0
2016-May-27 00:33N 40°54' E 012°58'0 0.0
2016-May-26 23:33N 40°54' E 012°58'0 0.0
2016-May-26 22:33N 40°54' E 012°58'0 0.0
2016-May-26 21:33N 40°54' E 012°58'0 0.0
2016-May-26 20:33N 40°54' E 012°58'0 0.0
2016-May-26 19:33N 40°54' E 012°58'0 0.0
2016-May-26 18:32N 40°54' E 012°58'9 9.6
2016-May-26 17:33N 40°59' E 013°08'1514.5
2016-May-26 16:33N 41°07' E 013°24'1312.6
2016-May-26 15:33N 41°15' E 013°37'5 5.1
2016-May-26 14:34N 41°10' E 013°36'1515.3
2016-May-26 13:34N 40°56' E 013°29'8 8.3
2016-May-26 12:34N 40°48' E 013°26'0 0.0
2016-May-26 11:33N 40°48' E 013°26'0 0.0
2016-May-26 10:34N 40°48' E 013°26'0 0.1
2016-May-26 09:33N 40°48' E 013°26'1414.4
2016-May-26 08:34N 41°02' E 013°31'1414.0
2016-May-26 07:33N 41°15' E 013°37'0 0.1
2016-May-26 06:33N 41°15' E 013°37'8 7.7
2016-May-26 05:28N 41°09' E 013°30'1314.7
2016-May-26 04:34N 41°01' E 013°15'9 0.9
2016-May-25 18:31N 40°57' E 013°05'3014.2
2016-May-25 16:23N 41°15' E 013°37'0 0.4
2016-May-25 15:18N 41°15' E 013°37'1412.3
2016-May-25 14:09N 41°06' E 013°23'1115.0
2016-May-25 13:26N 40°60' E 013°11'23 4.4
2016-May-25 08:18N 41°13' E 013°36'3 1.5
2016-May-25 06:25N 41°15' E 013°37'36 3.2
2016-May-24 19:08N 40°54' E 012°58'813.4
2016-May-24 18:33N 40°57' E 013°07'2713.0
2016-May-24 16:30N 41°13' E 013°36'3 3.0
2016-May-24 15:33N 41°15' E 013°37'12 9.8
2016-May-24 14:20N 41°08' E 013°24'10 0.5
2016-May-23 17:20N 40°60' E 013°16'2212.2
2016-May-23 15:32N 41°15' E 013°37'6 6.2
2016-May-23 14:33N 41°09' E 013°35'1514.7
2016-May-23 13:34N 40°55' E 013°29'8 7.7
2016-May-23 12:32N 40°48' E 013°26'0 0.0
2016-May-23 11:33N 40°48' E 013°26'0 0.0
2016-May-23 10:33N 40°48' E 013°26'0 0.0
2016-May-23 09:33N 40°48' E 013°26'1313.1
2016-May-23 08:33N 41°01' E 013°31'1514.8
2016-May-23 07:33N 41°15' E 013°37'6 2.9
2016-May-23 05:33N 41°10' E 013°32'1515.3
2016-May-23 04:33N 41°02' E 013°14'1515.2
2016-May-23 03:33N 40°54' E 012°58'0 0.2
2016-May-23 02:33N 40°54' E 012°58'0 0.0
2016-May-23 01:33N 40°54' E 012°58'0 0.0
2016-May-23 00:33N 40°54' E 012°58'0 0.0
2016-May-22 23:33N 40°54' E 012°58'0 0.0
2016-May-22 22:33N 40°54' E 012°58'0 0.0
2016-May-22 21:33N 40°54' E 012°58'0 0.0
2016-May-22 20:33N 40°54' E 012°58'0 0.0
2016-May-22 19:33N 40°54' E 012°58'0 0.0
2016-May-22 18:33N 40°54' E 012°58'7 7.4
2016-May-22 17:33N 40°58' E 013°06'1515.0
2016-May-22 16:32N 41°06' E 013°23'1414.2
2016-May-22 15:33N 41°15' E 013°37'6 5.8
2016-May-22 14:34N 41°10' E 013°35'1515.0
2016-May-22 13:33N 40°55' E 013°29'8 7.8
2016-May-22 12:34N 40°48' E 013°26'0 0.0
2016-May-22 11:34N 40°48' E 013°26'0 0.0
2016-May-22 10:34N 40°48' E 013°26'0 0.0
2016-May-22 09:34N 40°48' E 013°26'19 4.7
2016-May-22 05:33N 41°07' E 013°23'1615.2
2016-May-22 04:30N 40°58' E 013°06'7 7.5
2016-May-22 03:32N 40°54' E 012°58'0 0.0
2016-May-22 02:33N 40°54' E 012°58'0 0.0
2016-May-22 01:33N 40°54' E 012°58'0 0.0
2016-May-22 00:33N 40°54' E 012°58'0 0.0
2016-May-21 23:33N 40°54' E 012°58'0 0.0
2016-May-21 22:33N 40°54' E 012°58'0 0.0
2016-May-21 21:33N 40°54' E 012°58'0 0.0
2016-May-21 20:33N 40°54' E 012°58'0 0.0
2016-May-21 19:33N 40°54' E 012°58'0 0.0
2016-May-21 18:33N 40°54' E 012°58'9 8.7
2016-May-21 17:33N 40°58' E 013°08'1514.5
2016-May-21 16:33N 41°06' E 013°24'1313.3
2016-May-21 15:33N 41°15' E 013°37'5 5.3
2016-May-21 14:34N 41°10' E 013°35'1515.2
2016-May-21 13:33N 40°56' E 013°29'8 8.1
2016-May-21 12:33N 40°48' E 013°26'0 0.0
2016-May-21 11:34N 40°48' E 013°26'0 0.0
2016-May-21 10:34N 40°48' E 013°26'0 0.0
2016-May-21 09:34N 40°48' E 013°26'1413.5
2016-May-21 08:33N 41°01' E 013°31'1413.9
2016-May-21 07:33N 41°14' E 013°37'1 1.0
2016-May-21 06:24N 41°15' E 013°37'7 7.9
2016-May-21 05:33N 41°10' E 013°32'1514.7
2016-May-21 04:33N 41°02' E 013°15'1514.8
2016-May-21 03:33N 40°54' E 012°58'28 2.5
2016-May-20 16:11N 41°10' E 013°30'812.3
2016-May-20 15:33N 41°15' E 013°37'  

Dump ship's entire track history